| time (UTC) | temp F | wind direction | speed MPH | gust MPH | rain 1hr in | rain 24hr in | rain mn in | humidity % | barometer mb |
| 20260506231526 | 43 | 325 | 1.0 | 4.0 | 0.00 | 0.37 | 0.14 | 93 | 958.5 |
| 20260506230023 | 43 | 309 | 1.0 | 4.0 | 0.00 | 0.37 | 0.14 | 93 | 958.2 |
| 20260506224523 | 44 | 320 | 1.0 | 6.0 | 0.00 | 0.38 | 0.14 | 93 | 958.2 |
| 20260506223020 | 44 | 295 | 1.0 | 4.0 | 0.00 | 0.38 | 0.14 | 93 | 957.6 |
| 20260506221530 | 44 | 289 | 2.0 | 6.0 | 0.00 | 0.38 | 0.14 | 93 | 957.8 |
| 20260506220033 | 44 | 219 | 0.0 | 4.0 | 0.00 | 0.38 | 0.14 | 93 | 957.6 |
| 20260506214525 | 44 | 217 | 2.0 | 4.0 | 0.00 | 0.38 | 0.14 | 93 | 958.0 |
| 20260506213022 | 45 | 267 | 3.0 | 9.0 | 0.00 | 0.38 | 0.14 | 93 | 957.7 |
| 20260506211532 | 45 | 259 | 3.0 | 9.0 | 0.01 | 0.38 | 0.14 | 93 | 957.4 |
| 20260506210028 | 45 | 317 | 1.0 | 6.0 | 0.01 | 0.38 | 0.14 | 93 | 957.0 |
| 20260506204527 | 45 | 323 | 1.0 | 6.0 | 0.01 | 0.38 | 0.14 | 93 | 956.9 |
| 20260506203025 | 46 | 255 | 1.0 | 10.0 | 0.02 | 0.38 | 0.14 | 93 | 956.6 |
| 20260506201510 | 46 | 305 | 0.0 | 4.0 | 0.04 | 0.37 | 0.13 | 93 | 956.0 |
| 20260506200010 | 46 | 319 | 0.0 | 7.0 | 0.04 | 0.37 | 0.13 | 93 | 955.9 |
| 20260506194608 | 46 | 344 | 1.0 | 5.0 | 0.04 | 0.38 | 0.13 | 93 | 956.0 |
| 20260506193006 | 47 | 310 | 2.0 | 8.0 | 0.04 | 0.37 | 0.12 | 93 | 956.0 |
| 20260506191511 | 47 | 306 | 0.0 | 4.0 | 0.02 | 0.35 | 0.10 | 93 | 955.9 |
| 20260506190007 | 47 | 297 | 0.0 | 3.0 | 0.01 | 0.34 | 0.09 | 93 | 955.6 |
| 20260506184505 | 48 | 303 | 1.0 | 5.0 | 0.01 | 0.34 | 0.09 | 93 | 955.5 |
| 20260506183004 | 48 | 315 | 2.0 | 8.0 | 0.01 | 0.33 | 0.08 | 92 | 955.4 |
| 20260506181558 | 48 | 325 | 2.0 | 12.0 | 0.01 | 0.33 | 0.08 | 92 | 955.0 |
| 20260506180054 | 49 | 315 | 1.0 | 9.0 | 0.01 | 0.33 | 0.08 | 92 | 954.9 |
| 20260506174551 | 50 | 315 | 1.0 | 4.0 | 0.01 | 0.33 | 0.08 | 92 | 954.7 |
| 20260506173147 | 51 | 311 | 2.0 | 6.0 | 0.02 | 0.33 | 0.08 | 92 | 954.8 |
| 20260506171554 | 53 | 298 | 0.0 | 4.0 | 0.01 | 0.32 | 0.07 | 93 | 954.7 |
| 20260506170045 | 55 | 355 | 0.0 | 5.0 | 0.01 | 0.32 | 0.07 | 94 | 954.5 |
| 20260506164545 | 56 | 224 | 1.0 | 4.0 | 0.01 | 0.32 | 0.07 | 94 | 954.8 |
| 20260506163059 | 55 | 201 | 0.0 | 3.0 | 0.01 | 0.31 | 0.06 | 94 | 954.6 |
| 20260506161544 | 55 | 269 | 0.0 | 4.0 | 0.01 | 0.31 | 0.06 | 94 | 954.4 |
| 20260506160042 | 55 | 157 | 0.0 | 7.0 | 0.03 | 0.31 | 0.06 | 94 | 954.4 |
| 20260506154546 | 55 | 186 | 0.0 | 4.0 | 0.03 | 0.31 | 0.06 | 94 | 954.8 |
| 20260506153042 | 55 | 194 | 0.0 | 5.0 | 0.04 | 0.30 | 0.05 | 94 | 954.6 |
| 20260506151557 | 55 | 175 | 2.0 | 6.0 | 0.04 | 0.30 | 0.05 | 94 | 954.6 |
| 20260506150052 | 55 | 167 | 0.0 | 0.0 | 0.04 | 0.28 | 0.04 | 94 | 954.8 |
| 20260506144550 | 55 | 167 | 0.0 | 0.0 | 0.05 | 0.28 | 0.03 | 94 | 954.7 |
| 20260506143048 | 55 | 167 | 0.0 | 0.0 | 0.04 | 0.26 | 0.01 | 94 | 954.5 |
| 20260506141549 | 54 | 167 | 0.0 | 0.0 | 0.08 | 0.26 | 0.01 | 94 | 954.5 |
| 20260506140052 | 54 | 167 | 0.0 | 0.0 | 0.10 | 0.25 | 0.00 | 93 | 954.6 |
| 20260506134540 | 53 | 167 | 0.0 | 0.0 | 0.13 | 0.24 | 0.24 | 93 | 954.9 |
| 20260506133039 | 53 | 168 | 0.0 | 1.0 | 0.14 | 0.22 | 0.22 | 93 | 955.1 |
| 20260506131534 | 53 | 161 | 0.0 | 5.0 | 0.13 | 0.19 | 0.19 | 93 | 955.3 |
| 20260506130033 | 53 | 158 | 0.0 | 0.0 | 0.11 | 0.16 | 0.16 | 93 | 955.6 |
| 20260506124532 | 53 | 158 | 0.0 | 2.0 | 0.07 | 0.12 | 0.12 | 93 | 955.5 |
| 20260506123031 | 53 | 72 | 0.0 | 0.0 | 0.04 | 0.08 | 0.08 | 92 | 955.1 |
| 20260506121537 | 52 | 51 | 0.0 | 0.0 | 0.02 | 0.06 | 0.06 | 92 | 955.0 |
| 20260506120037 | 52 | 51 | 0.0 | 0.0 | 0.01 | 0.05 | 0.05 | 92 | 954.9 |
| 20260506114537 | 52 | 51 | 0.0 | 0.0 | 0.02 | 0.05 | 0.05 | 92 | 955.3 |
| 20260506113036 | 52 | 51 | 0.0 | 0.0 | 0.01 | 0.04 | 0.04 | 92 | 955.5 |
| 20260506111527 | 52 | 51 | 0.0 | 0.0 | 0.01 | 0.04 | 0.04 | 91 | 955.8 |
| 20260506110027 | 52 | 51 | 0.0 | 1.0 | 0.02 | 0.04 | 0.04 | 91 | 955.7 |
| 20260506104523 | 52 | 51 | 0.0 | 1.0 | 0.01 | 0.03 | 0.03 | 91 | 955.5 |
| 20260506103023 | 52 | 51 | 0.0 | 1.0 | 0.01 | 0.03 | 0.03 | 91 | 955.5 |
| 20260506101536 | 51 | 51 | 0.0 | 0.0 | 0.01 | 0.03 | 0.03 | 91 | 955.2 |
| 20260506100039 | 51 | 51 | 0.0 | 0.0 | 0.00 | 0.02 | 0.02 | 91 | 954.9 |
| 20260506094532 | 51 | 51 | 0.0 | 1.0 | 0.00 | 0.02 | 0.02 | 91 | 955.1 |
| 20260506093052 | 51 | 51 | 0.0 | 1.0 | 0.00 | 0.02 | 0.02 | 90 | 955.0 |
| 20260506091527 | 51 | 51 | 0.0 | 1.0 | 0.00 | 0.02 | 0.02 | 90 | 955.2 |
| 20260506090026 | 51 | 51 | 0.0 | 0.0 | 0.00 | 0.02 | 0.02 | 90 | 955.4 |
| 20260506084526 | 51 | 51 | 0.0 | 1.0 | 0.00 | 0.02 | 0.02 | 89 | 955.6 |
| 20260506083026 | 50 | 51 | 0.0 | 2.0 | 0.00 | 0.02 | 0.02 | 89 | 955.9 |
| 20260506081528 | 50 | 51 | 0.0 | 2.0 | 0.00 | 0.02 | 0.02 | 88 | 955.8 |
| 20260506073027 | 51 | 51 | 0.0 | 0.0 | 0.00 | 0.02 | 0.02 | 88 | 955.7 |
| 20260506071509 | 51 | 51 | 0.0 | 0.0 | 0.00 | 0.02 | 0.02 | 88 | 955.7 |
| 20260506061511 | 51 | 51 | 2.0 | 4.0 | 0.00 | 0.02 | 0.02 | 88 | 956.2 |
| 20260506044558 | 51 | 355 | 0.0 | 0.0 | 0.00 | 0.02 | 0.02 | 88 | 957.5 |
| 20260506043053 | 51 | 355 | 0.0 | 0.0 | 0.00 | 0.02 | 0.02 | 87 | 957.5 |
| 20260506041559 | 51 | 355 | 0.0 | 0.0 | 0.00 | 0.02 | 0.02 | 87 | 957.5 |
| 20260506040047 | 52 | 349 | 0.0 | 1.0 | 0.00 | 0.02 | 0.02 | 86 | 957.7 |
| 20260506034543 | 52 | 349 | 0.0 | 2.0 | 0.00 | 0.02 | 0.02 | 85 | 957.6 |
| 20260506033042 | 53 | 315 | 0.0 | 1.0 | 0.00 | 0.02 | 0.02 | 84 | 957.9 |
| 20260506031507 | 53 | 306 | 0.0 | 3.0 | 0.00 | 0.02 | 0.02 | 83 | 957.9 |
| 20260506030005 | 54 | 344 | 0.0 | 2.0 | 0.00 | 0.02 | 0.02 | 82 | 958.0 |
| 20260506024504 | 55 | 23 | 1.0 | 5.0 | 0.00 | 0.02 | 0.02 | 81 | 957.7 |
| 20260506023058 | 56 | 333 | 1.0 | 7.0 | 0.00 | 0.02 | 0.02 | 80 | 957.8 |
| 20260506021553 | 57 | 171 | 0.0 | 4.0 | 0.00 | 0.02 | 0.02 | 82 | 957.7 |
| 20260506020116 | 59 | 351 | 0.0 | 4.0 | 0.00 | 0.02 | 0.02 | 84 | 957.7 |
| 20260506014547 | 59 | 315 | 0.0 | 0.0 | 0.00 | 0.02 | 0.02 | 83 | 957.6 |
| 20260506013044 | 60 | 315 | 0.0 | 2.0 | 0.00 | 0.02 | 0.02 | 83 | 957.3 |
| 20260506011548 | 60 | 315 | 0.0 | 3.0 | 0.00 | 0.02 | 0.02 | 83 | 957.0 |
| 20260506010041 | 61 | 326 | 0.0 | 3.0 | 0.00 | 0.02 | 0.02 | 83 | 957.1 |
| 20260506004543 | 61 | 270 | 0.0 | 1.0 | 0.00 | 0.02 | 0.02 | 82 | 956.6 |
| 20260506003037 | 61 | 270 | 0.0 | 1.0 | 0.00 | 0.02 | 0.02 | 81 | 956.1 |
| 20260506001556 | 62 | 270 | 0.0 | 2.0 | 0.00 | 0.02 | 0.02 | 80 | 956.0 |
| 20260506000104 | 62 | 266 | 0.0 | 0.0 | 0.00 | 0.02 | 0.02 | 80 | 956.0 |
| 20260505234548 | 62 | 266 | 0.0 | 0.0 | 0.00 | 0.02 | 0.02 | 80 | 955.9 |
| 20260505233051 | 62 | 266 | 0.0 | 0.0 | 0.00 | 0.02 | 0.02 | 80 | 956.1 |